Time;durP1;ratioP1;P1;durP2;ratioP2;P2;SDS_P1;SDS_P2;PMS_P1;PMS_P2;Temp;Humidity;BMP_temperature;BMP_pressure;BME280_temperature;BME280_humidity;BME280_pressure;Samples;Min_cycle;Max_cycle;Signal;HPM_P1;HPM_P2
2023/09/29 00:01:12;;;;;;;12.07;3.03;;;;;;;21.86;57.09;101533.72;5021847;28;20067;-73
2023/09/29 00:03:40;;;;;;;13.45;3.13;;;;;;;21.80;57.41;101535.63;5041074;28;20458;-74
2023/09/29 00:06:07;;;;;;;15.13;3.22;;;;;;;21.88;56.95;101541.66;5027740;28;20030;-74
2023/09/29 00:08:39;;;;;;;12.88;3.10;;;;;;;21.79;57.25;101525.91;5029754;28;20041;-75
2023/09/29 00:11:12;;;;;;;15.55;3.30;;;;;;;21.86;57.56;101531.06;5028401;28;20734;-74
2023/09/29 00:13:38;;;;;;;14.63;3.60;;;;;;;21.84;57.41;101532.84;5030919;28;20088;-74
2023/09/29 00:16:18;;;;;;;16.80;3.50;;;;;;;21.71;57.43;101520.75;5031885;28;20033;-74
2023/09/29 00:18:44;;;;;;;12.68;3.47;;;;;;;21.81;57.28;101518.78;5032202;28;20034;-72
2023/09/29 00:21:12;;;;;;;12.82;3.33;;;;;;;21.67;57.80;101521.75;5031937;28;20125;-75
2023/09/29 00:23:38;;;;;;;15.65;3.28;;;;;;;21.92;56.91;101515.88;5032530;28;20034;-73
2023/09/29 00:26:03;;;;;;;12.85;2.90;;;;;;;21.85;57.04;101521.34;5031942;28;20026;-74
2023/09/29 00:28:29;;;;;;;13.70;3.45;;;;;;;21.86;57.12;101515.13;5032169;28;20041;-74
2023/09/29 00:30:57;;;;;;;12.15;3.17;;;;;;;21.83;57.07;101519.66;5030306;28;20064;-74
2023/09/29 00:33:22;;;;;;;13.00;3.10;;;;;;;21.90;57.12;101518.56;5038173;28;20038;-74
2023/09/29 00:35:47;;;;;;;14.13;3.47;;;;;;;21.97;56.77;101514.03;5031648;28;20029;-75
2023/09/29 00:38:16;;;;;;;12.02;3.17;;;;;;;22.03;56.39;101508.56;5032258;28;20521;-74
2023/09/29 00:40:47;;;;;;;14.55;3.63;;;;;;;21.95;56.47;101518.50;5029407;28;20048;-74
2023/09/29 00:43:15;;;;;;;15.07;3.40;;;;;;;21.99;56.14;101514.88;5030736;28;20038;-74
2023/09/29 00:45:44;;;;;;;14.48;3.00;;;;;;;22.04;56.49;101519.16;5032933;28;20051;-72
2023/09/29 00:48:14;;;;;;;13.85;3.20;;;;;;;22.05;56.46;101515.59;5034594;28;20029;-74
2023/09/29 00:50:40;;;;;;;14.63;3.10;;;;;;;21.98;56.38;101521.09;5033414;28;20034;-74
2023/09/29 00:53:11;;;;;;;13.70;3.15;;;;;;;22.12;56.21;101513.69;5031846;28;20053;-74
2023/09/29 00:55:42;;;;;;;13.63;3.15;;;;;;;22.09;56.33;101513.72;5032477;28;20431;-73
2023/09/29 00:58:12;;;;;;;11.25;2.80;;;;;;;22.11;55.98;101496.88;5031990;28;20060;-74
2023/09/29 01:00:42;;;;;;;13.45;3.38;;;;;;;22.07;56.04;101500.53;5032312;28;20045;-74
2023/09/29 01:03:15;;;;;;;11.60;3.25;;;;;;;22.10;55.81;101492.47;5031139;28;20076;-74
2023/09/29 01:05:52;;;;;;;9.93;2.83;;;;;;;22.06;55.96;101488.16;5031408;28;20037;-74
2023/09/29 01:08:22;;;;;;;11.50;2.72;;;;;;;22.05;55.91;101490.84;5031752;28;20128;-73
2023/09/29 01:10:48;;;;;;;11.00;2.97;;;;;;;22.02;55.96;101493.53;5031119;28;20029;-74
2023/09/29 01:13:15;;;;;;;14.52;3.10;;;;;;;21.89;56.59;101486.78;5031697;28;20028;-74
2023/09/29 01:15:40;;;;;;;13.23;3.10;;;;;;;21.95;56.23;101489.28;5031395;28;20452;-74
2023/09/29 01:18:16;;;;;;;13.95;2.88;;;;;;;21.90;56.48;101489.38;5031330;28;20082;-75
2023/09/29 01:20:43;;;;;;;14.32;3.40;;;;;;;21.96;56.27;101481.28;5031228;28;20048;-75
2023/09/29 01:23:09;;;;;;;14.85;3.03;;;;;;;21.95;56.37;101473.34;5031460;28;20053;-74
2023/09/29 01:25:36;;;;;;;11.30;3.13;;;;;;;21.96;56.49;101468.00;5031620;28;20458;-75
2023/09/29 01:28:05;;;;;;;15.10;3.72;;;;;;;21.85;56.72;101454.97;5031788;28;20088;-75
2023/09/29 01:30:31;;;;;;;11.43;3.10;;;;;;;21.99;56.56;101465.31;5032238;28;20399;-75
2023/09/29 01:32:57;;;;;;;16.48;3.08;;;;;;;21.89;56.94;101462.88;5030785;28;20344;-73
2023/09/29 01:35:27;;;;;;;14.45;3.03;;;;;;;21.79;57.05;101457.78;5031296;28;20183;-73
2023/09/29 01:37:54;;;;;;;13.75;3.17;;;;;;;21.96;56.92;101457.41;5030142;28;20083;-74
2023/09/29 01:40:23;;;;;;;15.05;3.35;;;;;;;21.90;56.68;101459.28;5028993;28;20487;-75
2023/09/29 01:42:58;;;;;;;11.73;3.40;;;;;;;21.91;57.20;101461.91;5030488;28;20048;-72
2023/09/29 01:45:24;;;;;;;12.45;3.53;;;;;;;22.13;55.96;101455.22;5031130;28;20566;-74
2023/09/29 01:47:49;;;;;;;10.90;3.22;;;;;;;22.19;56.27;101452.41;5030667;28;20230;-72
2023/09/29 01:50:16;;;;;;;14.70;3.60;;;;;;;22.22;56.10;101448.78;5030819;28;20530;-73
2023/09/29 01:52:43;;;;;;;10.43;3.20;;;;;;;22.20;55.98;101445.31;5030052;28;20037;-73
2023/09/29 01:55:11;;;;;;;13.05;3.35;;;;;;;22.02;56.62;101467.00;5030845;28;20041;-73
2023/09/29 01:57:38;;;;;;;13.48;3.58;;;;;;;21.63;58.61;101492.66;5030955;28;20038;-74
2023/09/29 02:00:04;;;;;;;10.70;3.20;;;;;;;22.10;56.67;101467.69;5030570;28;20442;-74
2023/09/29 02:02:30;;;;;;;14.18;3.58;;;;;;;21.93;58.08;101449.50;5030267;28;20411;-74
2023/09/29 02:04:56;;;;;;;14.35;3.72;;;;;;;22.19;57.49;101441.78;5030540;28;20033;-73
2023/09/29 02:07:24;;;;;;;13.88;3.38;;;;;;;22.01;57.40;101438.72;5030708;28;20045;-73
2023/09/29 02:09:50;;;;;;;12.90;3.45;;;;;;;22.12;57.38;101434.88;5030482;28;20422;-73
2023/09/29 02:12:17;;;;;;;12.55;3.13;;;;;;;22.27;56.74;101434.47;5030738;28;20030;-73
2023/09/29 02:14:42;;;;;;;11.70;3.72;;;;;;;22.08;57.22;101422.56;5030343;28;20061;-72
2023/09/29 02:17:10;;;;;;;11.73;3.35;;;;;;;21.82;58.26;101420.56;5030266;28;20065;-74
2023/09/29 02:19:38;;;;;;;14.05;3.72;;;;;;;21.76;58.50;101417.19;5030372;28;20061;-73
2023/09/29 02:22:08;;;;;;;13.98;3.40;;;;;;;22.09;57.91;101408.38;5029391;28;20384;-73
2023/09/29 02:24:33;;;;;;;10.40;3.53;;;;;;;22.23;57.37;101402.72;5030279;28;20068;-74
2023/09/29 02:26:59;;;;;;;12.68;3.30;;;;;;;22.29;57.32;101401.69;5029425;28;20044;-74
2023/09/29 02:29:27;;;;;;;13.82;3.60;;;;;;;22.34;57.03;101405.09;5030283;28;20037;-73
2023/09/29 02:31:56;;;;;;;13.20;3.58;;;;;;;22.27;56.69;101412.34;5029348;28;20041;-72
2023/09/29 02:34:23;;;;;;;13.45;3.60;;;;;;;22.37;56.34;101415.66;5030244;28;20034;-73
2023/09/29 02:36:52;;;;;;;14.38;3.40;;;;;;;22.43;56.32;101408.38;5028624;28;20041;-73
2023/09/29 02:39:20;;;;;;;14.75;3.30;;;;;;;22.37;57.09;101420.97;5030100;28;20125;-73
2023/09/29 02:41:49;;;;;;;15.63;3.70;;;;;;;22.39;57.81;101414.69;5029066;28;20111;-73
2023/09/29 02:44:14;;;;;;;12.43;3.40;;;;;;;21.91;60.36;101394.66;5029735;28;20109;-73
2023/09/29 02:46:39;;;;;;;9.52;3.50;;;;;;;21.98;61.05;101399.84;5030299;28;20400;-73
2023/09/29 02:49:07;;;;;;;13.90;3.58;;;;;;;21.80;61.62;101398.47;5029689;28;20377;-75
2023/09/29 02:51:35;;;;;;;13.57;3.67;;;;;;;21.63;63.02;101392.72;5029913;28;20089;-74
2023/09/29 02:54:03;;;;;;;12.38;3.60;;;;;;;21.77;62.31;101381.75;5029577;28;20044;-74
2023/09/29 02:56:31;;;;;;;10.55;3.78;;;;;;;21.62;63.22;101376.81;5030077;28;20040;-75
2023/09/29 02:59:01;;;;;;;9.68;3.25;;;;;;;21.64;63.16;101383.84;5029365;28;20132;-75
2023/09/29 03:01:30;;;;;;;13.50;3.83;;;;;;;21.52;64.43;101383.25;5029115;28;20040;-74
2023/09/29 03:04:09;;;;;;;9.55;3.30;;;;;;;21.76;63.63;101372.06;5028771;28;20037;-73
2023/09/29 03:06:44;;;;;;;10.50;3.20;;;;;;;21.80;63.13;101373.72;5029779;28;20495;-74
2023/09/29 03:09:13;;;;;;;10.57;3.50;;;;;;;21.85;62.88;101364.72;5029404;28;20079;-74
2023/09/29 03:11:42;;;;;;;13.25;3.30;;;;;;;21.96;62.71;101363.59;5029526;28;20457;-74
2023/09/29 03:14:11;;;;;;;11.02;3.40;;;;;;;21.96;62.68;101361.81;5029750;28;20068;-74
2023/09/29 03:16:43;;;;;;;13.15;3.00;;;;;;;22.00;62.23;101359.97;5030029;28;20510;-73
2023/09/29 03:19:09;;;;;;;8.57;3.13;;;;;;;21.91;62.95;101357.50;5029116;28;20034;-73
2023/09/29 03:21:37;;;;;;;11.05;3.40;;;;;;;21.96;62.66;101353.84;5029584;28;20033;-74
2023/09/29 03:24:10;;;;;;;10.75;2.97;;;;;;;21.86;63.18;101357.63;5029148;28;20037;-73
2023/09/29 03:26:41;;;;;;;10.23;3.33;;;;;;;21.75;63.55;101339.34;5029333;28;20044;-73
2023/09/29 03:29:07;;;;;;;9.52;3.45;;;;;;;21.88;63.22;101342.53;5028940;28;20419;-74
2023/09/29 03:31:39;;;;;;;12.85;3.35;;;;;;;21.85;63.29;101338.19;5029167;28;20044;-75
2023/09/29 03:34:10;;;;;;;14.20;3.53;;;;;;;21.76;63.20;101334.91;5028920;28;20037;-73
2023/09/29 03:36:38;;;;;;;10.80;3.42;;;;;;;21.82;62.87;101335.63;5030220;28;20034;-74
2023/09/29 03:39:10;;;;;;;10.60;3.28;;;;;;;21.89;62.99;101327.50;5030102;28;20034;-74
2023/09/29 03:41:35;;;;;;;10.02;3.55;;;;;;;21.76;63.44;101317.19;5029663;28;20108;-75
2023/09/29 03:44:06;;;;;;;9.98;3.33;;;;;;;21.73;63.57;101321.69;5029733;28;20106;-74
2023/09/29 03:46:32;;;;;;;15.70;3.42;;;;;;;21.80;63.42;101320.63;5029674;28;20033;-73
2023/09/29 03:48:57;;;;;;;12.82;2.97;;;;;;;21.82;63.61;101318.81;5031357;28;20037;-73
2023/09/29 03:51:24;;;;;;;10.73;3.67;;;;;;;21.68;64.09;101319.16;5032871;28;20164;-73
2023/09/29 03:53:54;;;;;;;10.18;3.17;;;;;;;21.78;63.73;101314.47;5032552;28;20037;-74
2023/09/29 03:56:23;;;;;;;8.27;2.97;;;;;;;21.88;63.85;101310.69;5032863;28;20148;-74
2023/09/29 03:58:49;;;;;;;11.52;3.38;;;;;;;21.90;63.68;101313.28;5032483;28;20513;-75
2023/09/29 04:01:15;;;;;;;8.75;3.03;;;;;;;21.92;63.20;101319.44;5031362;28;20091;-74
2023/09/29 04:03:41;;;;;;;10.38;3.15;;;;;;;21.92;63.39;101319.44;5032649;28;20037;-74
2023/09/29 04:06:06;;;;;;;10.30;2.83;;;;;;;21.94;63.26;101314.97;5032984;28;20052;-72
2023/09/29 04:08:34;;;;;;;10.70;3.30;;;;;;;21.99;63.02;101315.75;5032667;28;20508;-75
2023/09/29 04:11:03;;;;;;;9.43;3.13;;;;;;;22.03;63.15;101317.41;5031897;28;20049;-75
2023/09/29 04:13:29;;;;;;;10.00;3.35;;;;;;;22.05;63.34;101315.59;5032426;28;20083;-74
2023/09/29 04:16:02;;;;;;;11.00;3.42;;;;;;;22.07;63.46;101305.81;5033519;28;20136;-75
2023/09/29 04:18:28;;;;;;;10.57;3.40;;;;;;;22.13;63.13;101308.28;5035205;28;20558;-74
2023/09/29 04:20:56;;;;;;;9.82;3.17;;;;;;;22.10;63.20;101306.56;5035347;28;20037;-72
2023/09/29 04:23:22;;;;;;;10.55;2.80;;;;;;;22.11;63.32;101305.66;5033041;28;20033;-71
2023/09/29 04:25:47;;;;;;;10.27;3.42;;;;;;;22.11;63.44;101310.97;5032195;28;20034;-72
2023/09/29 04:28:13;;;;;;;9.68;3.00;;;;;;;22.19;63.31;101313.44;5030823;28;20033;-72
2023/09/29 04:30:41;;;;;;;8.38;2.90;;;;;;;22.25;63.26;101316.78;5032360;28;20483;-72
2023/09/29 04:33:09;;;;;;;11.40;2.88;;;;;;;22.28;63.09;101310.50;5031662;28;20041;-71
2023/09/29 04:35:38;;;;;;;8.65;3.25;;;;;;;22.29;62.97;101311.38;5032647;28;20034;-73
2023/09/29 04:38:07;;;;;;;9.73;2.90;;;;;;;22.31;63.07;101299.81;5032911;28;20030;-72
2023/09/29 04:40:32;;;;;;;8.27;3.15;;;;;;;22.20;63.53;101296.59;5034580;28;20029;-73
2023/09/29 04:42:57;;;;;;;8.18;3.10;;;;;;;22.28;63.24;101299.88;5035734;28;20034;-73
2023/09/29 04:45:26;;;;;;;9.80;3.38;;;;;;;22.17;63.44;101305.50;5035541;28;20410;-72
2023/09/29 04:47:58;;;;;;;6.70;2.97;;;;;;;22.30;63.29;101299.84;5033056;28;20041;-73
2023/09/29 04:50:23;;;;;;;9.05;3.10;;;;;;;22.29;63.70;101303.41;5033049;28;20022;-73
2023/09/29 04:52:49;;;;;;;12.60;3.28;;;;;;;22.33;63.25;101287.34;5032082;28;20768;-74
2023/09/29 04:55:14;;;;;;;9.20;3.00;;;;;;;22.29;63.67;101287.47;5032110;28;20084;-72
2023/09/29 04:57:46;;;;;;;7.72;2.95;;;;;;;22.17;64.00;101288.69;5032259;28;20116;-74
2023/09/29 05:00:17;;;;;;;9.88;3.30;;;;;;;22.27;63.60;101295.47;5031122;28;20109;-73
2023/09/29 05:02:43;;;;;;;7.70;2.60;;;;;;;22.35;63.82;101295.25;5031216;28;20042;-72
2023/09/29 05:05:08;;;;;;;8.73;2.90;;;;;;;22.37;63.51;101285.47;5031768;28;20046;-73
2023/09/29 05:07:34;;;;;;;8.10;3.20;;;;;;;22.40;63.28;101286.25;5031192;28;20044;-74
2023/09/29 05:10:06;;;;;;;9.65;3.20;;;;;;;22.38;63.83;101289.88;5031309;28;20049;-73
2023/09/29 05:12:33;;;;;;;10.65;3.20;;;;;;;22.37;63.86;101289.00;5030353;28;20040;-71
2023/09/29 05:15:01;;;;;;;10.52;3.20;;;;;;;22.32;64.10;101296.25;5032676;28;20522;-72
2023/09/29 05:17:27;;;;;;;9.63;2.90;;;;;;;22.44;63.63;101306.53;5031429;28;20034;-72
2023/09/29 05:19:55;;;;;;;9.48;3.08;;;;;;;22.47;63.71;101300.22;5027854;28;20594;-72
2023/09/29 05:22:23;;;;;;;8.20;2.83;;;;;;;22.47;63.63;101302.88;5031208;28;20780;-72
2023/09/29 05:24:53;;;;;;;6.53;2.75;;;;;;;22.64;63.17;101300.59;5030085;28;20402;-73
2023/09/29 05:27:21;;;;;;;6.88;3.00;;;;;;;22.61;62.95;101312.22;5031338;28;20502;-73
2023/09/29 05:29:47;;;;;;;7.38;2.88;;;;;;;22.58;63.19;101300.78;5030501;28;20043;-72
2023/09/29 05:32:28;;;;;;;6.95;2.83;;;;;;;22.69;62.49;101306.66;5030567;28;20033;-72
2023/09/29 05:35:02;;;;;;;9.43;3.10;;;;;;;22.67;62.73;101303.19;5030306;28;20040;-72
2023/09/29 05:37:30;;;;;;;8.00;3.10;;;;;;;22.63;63.03;101299.72;5031224;28;20064;-75
2023/09/29 05:40:04;;;;;;;6.90;2.83;;;;;;;22.66;63.24;101297.00;5030639;28;20399;-71
2023/09/29 05:42:30;;;;;;;7.90;2.92;;;;;;;22.60;63.52;101298.97;5030517;28;20124;-71
2023/09/29 05:44:56;;;;;;;8.68;2.85;;;;;;;22.67;63.21;101290.78;5030818;28;20117;-73
2023/09/29 05:47:28;;;;;;;11.00;3.30;;;;;;;22.57;63.94;101304.34;5030905;28;20667;-73
2023/09/29 05:49:53;;;;;;;9.38;3.42;;;;;;;22.47;64.04;101297.56;5029976;28;20059;-71
2023/09/29 05:52:21;;;;;;;6.30;2.90;;;;;;;22.55;64.16;101304.41;5030919;28;20029;-72
2023/09/29 05:54:47;;;;;;;6.72;2.70;;;;;;;22.63;63.95;101310.34;5029914;28;20045;-71
2023/09/29 05:57:12;;;;;;;8.63;3.00;;;;;;;22.68;63.88;101304.94;5030691;28;20025;-72
2023/09/29 05:59:40;;;;;;;8.35;3.10;;;;;;;22.75;63.83;101303.00;5030793;28;20040;-71
2023/09/29 06:02:06;;;;;;;9.93;3.03;;;;;;;22.71;63.98;101307.47;5030202;28;20054;-71
2023/09/29 06:04:31;;;;;;;9.05;2.92;;;;;;;22.69;64.46;101308.47;5030523;28;20070;-71
2023/09/29 06:06:57;;;;;;;7.40;3.03;;;;;;;22.73;64.50;101303.03;5029833;28;20041;-73
2023/09/29 06:09:22;;;;;;;9.40;3.05;;;;;;;22.70;65.22;101310.19;5030527;28;20037;-71
2023/09/29 06:11:49;;;;;;;7.88;2.88;;;;;;;22.74;64.99;101304.78;5029391;28;20082;-72
2023/09/29 06:14:14;;;;;;;8.45;3.20;;;;;;;22.54;66.14;101310.63;5030817;28;20033;-72
2023/09/29 06:16:39;;;;;;;8.00;2.80;;;;;;;22.45;66.77;101305.56;5029548;28;20034;-72
2023/09/29 06:19:05;;;;;;;8.25;3.20;;;;;;;22.74;66.02;101307.44;5030189;28;20060;-73
2023/09/29 06:21:33;;;;;;;8.32;2.70;;;;;;;22.77;66.08;101317.97;5029988;28;20435;-72
2023/09/29 06:23:58;;;;;;;6.25;2.47;;;;;;;22.82;65.53;101317.81;5028104;28;20041;-71
2023/09/29 06:26:23;;;;;;;7.15;2.42;;;;;;;22.81;66.01;101326.75;5030469;28;20028;-74
2023/09/29 06:28:49;;;;;;;5.30;2.75;;;;;;;22.88;65.61;101322.94;5029238;28;20462;-72
2023/09/29 06:31:14;;;;;;;7.45;2.70;;;;;;;22.80;66.40;101327.66;5030173;28;20040;-73
2023/09/29 06:33:45;;;;;;;8.93;2.75;;;;;;;22.95;65.92;101329.81;5029570;28;20037;-71
2023/09/29 06:36:11;;;;;;;10.88;2.65;;;;;;;22.94;66.11;101331.63;5029872;28;20372;-72
2023/09/29 06:38:40;;;;;;;5.82;2.40;;;;;;;23.09;65.64;101342.72;5029775;28;20036;-72
2023/09/29 06:41:09;;;;;;;7.18;2.60;;;;;;;23.17;65.65;101335.38;5029433;28;20059;-73
2023/09/29 06:43:34;;;;;;;7.07;2.80;;;;;;;23.19;65.75;101346.81;5029954;28;20053;-72
2023/09/29 06:45:59;;;;;;;8.68;2.88;;;;;;;23.04;66.49;101338.41;5029621;28;20143;-72
2023/09/29 06:48:25;;;;;;;8.15;3.08;;;;;;;23.13;66.33;101342.56;5029802;28;20030;-71
2023/09/29 06:50:51;;;;;;;6.88;2.97;;;;;;;23.02;67.62;101332.25;5029783;28;20040;-73
2023/09/29 06:53:16;;;;;;;5.70;2.90;;;;;;;22.99;68.35;101335.00;5029992;28;20104;-70
2023/09/29 06:55:41;;;;;;;6.18;2.58;;;;;;;23.09;68.31;101337.38;5029432;28;20051;-71
2023/09/29 06:58:07;;;;;;;6.40;2.63;;;;;;;22.95;69.51;101340.47;5030150;28;20025;-70
2023/09/29 07:00:35;;;;;;;6.07;2.30;;;;;;;23.11;68.83;101330.25;5029670;28;20492;-72
2023/09/29 07:03:00;;;;;;;4.03;2.20;;;;;;;22.98;69.06;101346.59;5029261;28;20041;-72
2023/09/29 07:05:28;;;;;;;5.13;2.58;;;;;;;23.04;69.10;101341.06;5030172;28;20507;-72
2023/09/29 07:07:54;;;;;;;6.80;2.38;;;;;;;22.98;69.61;101343.91;5029799;28;20061;-70
2023/09/29 07:10:19;;;;;;;4.63;2.15;;;;;;;23.06;69.27;101338.34;5030263;28;20115;-72
2023/09/29 07:12:49;;;;;;;5.07;2.30;;;;;;;23.13;69.17;101341.69;5029753;28;20033;-71
2023/09/29 07:15:17;;;;;;;5.78;2.22;;;;;;;23.08;69.63;101343.63;5030310;28;20430;-71
2023/09/29 07:17:42;;;;;;;6.55;2.17;;;;;;;23.01;70.37;101351.78;5029214;28;20704;-71
2023/09/29 07:20:08;;;;;;;5.22;2.20;;;;;;;23.07;70.30;101350.72;5029603;28;20041;-70
2023/09/29 07:22:34;;;;;;;7.57;2.33;;;;;;;23.20;69.81;101357.41;5031949;28;20057;-71
2023/09/29 07:25:09;;;;;;;5.80;2.20;;;;;;;23.22;70.01;101354.72;5032862;28;20128;-72
2023/09/29 07:27:39;;;;;;;6.13;2.20;;;;;;;23.13;70.62;101354.97;5033225;28;20040;-71
2023/09/29 07:30:06;;;;;;;7.13;2.20;;;;;;;23.02;71.35;101360.63;5032878;28;20026;-71
2023/09/29 07:32:32;;;;;;;4.07;2.10;;;;;;;23.13;71.37;101354.97;5033124;28;20033;-71
2023/09/29 07:34:57;;;;;;;4.38;2.08;;;;;;;23.26;70.95;101362.53;5031800;28;20033;-71
2023/09/29 07:37:28;;;;;;;5.07;1.95;;;;;;;23.19;71.20;101360.13;5033353;28;20682;-73
2023/09/29 07:39:58;;;;;;;4.32;1.98;;;;;;;23.42;70.59;101366.44;5033476;28;20069;-71
2023/09/29 07:42:26;;;;;;;6.55;2.20;;;;;;;23.35;71.00;101367.59;5032692;28;20033;-71
2023/09/29 07:44:58;;;;;;;4.70;2.05;;;;;;;23.33;70.94;101363.22;5032874;28;20045;-71
2023/09/29 07:47:29;;;;;;;4.07;1.85;;;;;;;23.23;71.31;101357.34;5035741;28;20044;-72
2023/09/29 07:49:54;;;;;;;4.10;2.22;;;;;;;23.45;71.08;101360.19;5032567;28;20411;-71
2023/09/29 07:52:28;;;;;;;5.80;2.05;;;;;;;23.53;71.35;101354.66;5032720;28;20029;-72
2023/09/29 07:54:56;;;;;;;5.00;2.08;;;;;;;23.46;71.85;101361.91;5032088;28;20199;-72
2023/09/29 07:57:28;;;;;;;4.97;2.00;;;;;;;23.69;70.94;101362.06;5038592;28;20036;-72
2023/09/29 07:59:53;;;;;;;7.18;2.05;;;;;;;23.88;70.14;101367.66;5032461;28;20039;-72
2023/09/29 08:02:21;;;;;;;5.45;2.05;;;;;;;23.71;70.10;101368.22;5032443;28;20402;-72
2023/09/29 08:04:46;;;;;;;3.95;1.90;;;;;;;24.07;69.55;101373.22;5032407;28;20041;-72
2023/09/29 08:07:13;;;;;;;5.63;2.00;;;;;;;24.08;69.20;101370.53;5033150;28;20128;-73
2023/09/29 08:09:45;;;;;;;3.92;1.80;;;;;;;24.29;68.11;101371.56;5033550;28;20490;-73
2023/09/29 08:12:13;;;;;;;4.57;1.95;;;;;;;24.16;68.65;101376.44;5033412;28;20033;-72
2023/09/29 08:14:38;;;;;;;5.95;2.00;;;;;;;24.15;68.23;101372.03;5032698;28;20615;-72
2023/09/29 08:17:13;;;;;;;4.72;2.20;;;;;;;24.35;67.17;101375.81;5032046;28;20037;-71
2023/09/29 08:19:39;;;;;;;6.75;2.10;;;;;;;24.54;66.24;101380.44;5032403;28;20060;-73
2023/09/29 08:22:05;;;;;;;5.97;2.20;;;;;;;24.79;66.00;101377.75;5031444;28;20033;-71
2023/09/29 08:24:31;;;;;;;5.18;2.20;;;;;;;24.83;65.49;101395.34;5032205;28;20030;-73
2023/09/29 08:27:03;;;;;;;6.57;1.80;;;;;;;25.03;64.88;101387.50;5032099;28;20068;-72
2023/09/29 08:29:31;;;;;;;4.22;2.22;;;;;;;25.13;64.63;101400.50;5032186;28;20069;-72
2023/09/29 08:31:58;;;;;;;5.10;2.30;;;;;;;24.74;64.86;101400.19;5031243;28;20684;-72
2023/09/29 08:34:24;;;;;;;5.20;2.40;;;;;;;24.59;65.78;101404.25;5031082;28;20036;-73
2023/09/29 08:36:53;;;;;;;5.43;2.03;;;;;;;24.98;64.50;101400.16;5031367;28;20033;-72
2023/09/29 08:39:18;;;;;;;4.82;2.03;;;;;;;25.26;63.91;101407.97;5025650;28;20044;-70
2023/09/29 08:42:05;;;;;;;3.80;2.15;;;;;;;25.45;62.56;101400.97;5041638;28;20406;-75
2023/09/29 08:44:32;;;;;;;5.00;2.20;;;;;;;25.46;63.10;101401.84;5032110;28;20037;-71
2023/09/29 08:47:01;;;;;;;7.70;1.92;;;;;;;25.61;62.45;101395.06;5031487;28;20044;-72
2023/09/29 08:49:27;;;;;;;5.78;2.33;;;;;;;25.36;62.72;101406.69;5031767;28;20044;-73
2023/09/29 08:52:00;;;;;;;4.68;2.35;;;;;;;25.22;63.16;101411.69;5030825;28;20034;-73
2023/09/29 08:54:27;;;;;;;5.60;2.10;;;;;;;24.90;65.17;101418.25;5031552;28;20065;-72
2023/09/29 08:56:54;;;;;;;5.97;1.95;;;;;;;25.09;63.92;101412.22;5031040;28;20034;-73
2023/09/29 08:59:21;;;;;;;4.07;2.00;;;;;;;24.91;64.69;101416.44;5031607;28;20078;-72
2023/09/29 09:01:48;;;;;;;5.35;2.10;;;;;;;24.97;64.40;101417.09;5030963;28;20039;-73
2023/09/29 09:04:14;;;;;;;6.15;2.13;;;;;;;24.77;65.28;101421.38;5031417;28;20063;-72
2023/09/29 09:06:41;;;;;;;4.65;2.00;;;;;;;24.50;66.51;101429.47;5031362;28;20486;-73
2023/09/29 09:09:13;;;;;;;5.03;2.25;;;;;;;24.33;67.84;101423.00;5030460;28;20029;-72
2023/09/29 09:11:44;;;;;;;3.60;1.85;;;;;;;24.50;67.38;101436.59;5031237;28;20535;-72
2023/09/29 09:14:10;;;;;;;3.75;1.90;;;;;;;24.82;66.55;101433.66;5031209;28;20051;-73
2023/09/29 09:16:56;;;;;;;4.32;1.80;;;;;;;25.01;65.94;101434.72;5031621;28;20033;-73
2023/09/29 09:19:24;;;;;;;3.00;1.77;;;;;;;25.22;65.63;101432.16;5031393;28;20398;-74
2023/09/29 09:21:50;;;;;;;3.45;1.77;;;;;;;25.08;65.86;101426.47;5030439;28;20037;-73
2023/09/29 09:24:23;;;;;;;4.38;1.90;;;;;;;25.04;66.04;101431.94;5031371;28;20040;-73
2023/09/29 09:26:49;;;;;;;5.20;2.00;;;;;;;24.99;65.99;101435.72;5030558;28;20438;-72
2023/09/29 09:29:20;;;;;;;3.45;1.75;;;;;;;24.55;68.36;101437.28;5030935;28;20041;-74
2023/09/29 09:31:55;;;;;;;3.22;1.80;;;;;;;24.52;69.32;101445.38;5030250;28;20503;-72
2023/09/29 09:34:42;;;;;;;3.55;1.80;;;;;;;24.38;69.89;101442.34;5031241;28;20040;-72
2023/09/29 09:37:23;;;;;;;7.93;1.90;;;;;;;24.05;72.05;101449.66;5030430;28;20466;-72
2023/09/29 09:39:48;;;;;;;3.53;1.75;;;;;;;24.36;71.61;101444.19;5030297;28;20037;-73
2023/09/29 09:42:15;;;;;;;2.90;1.80;;;;;;;24.34;72.80;101454.03;5030722;28;20124;-73
2023/09/29 09:44:42;;;;;;;2.72;1.67;;;;;;;24.34;71.88;101462.00;5030610;28;20064;-73
2023/09/29 09:47:12;;;;;;;3.42;1.80;;;;;;;24.33;72.27;101469.16;5030683;28;20040;-73
2023/09/29 09:49:48;;;;;;;3.45;1.55;;;;;;;24.44;71.81;101464.34;5031062;28;20121;-72
2023/09/29 09:52:30;;;;;;;3.33;1.65;;;;;;;24.28;72.45;101463.09;5030133;28;20033;-73
2023/09/29 09:55:13;;;;;;;3.17;1.80;;;;;;;24.02;73.92;101461.28;5030284;28;20037;-73
2023/09/29 09:57:42;;;;;;;3.03;1.52;;;;;;;24.06;73.25;101470.03;5030586;28;20406;-73
2023/09/29 10:00:10;;;;;;;2.47;1.40;;;;;;;23.00;78.44;101498.09;5030308;28;20064;-73
2023/09/29 10:03:11;;;;;;;4.38;1.83;;;;;;;22.54;80.11;101515.25;5030099;28;20042;-71
2023/09/29 10:05:40;;;;;;;2.58;1.10;;;;;;;22.98;77.47;101511.44;4978108;28;20593;-74
2023/09/29 10:08:07;;;;;;;2.92;1.00;;;;;;;22.54;79.43;101528.56;5030042;28;20060;-73
2023/09/29 10:10:40;;;;;;;2.38;1.10;;;;;;;22.37;80.48;101536.06;5030552;28;20033;-73
2023/09/29 10:13:11;;;;;;;3.92;1.20;;;;;;;22.18;80.75;101548.06;5029850;28;20061;-74
2023/09/29 10:16:00;;;;;;;5.07;1.20;;;;;;;22.51;79.66;101549.00;5030211;28;20041;-73
2023/09/29 10:18:40;;;;;;;4.75;1.17;;;;;;;22.42;80.50;101544.81;5029810;28;20037;-73
2023/09/29 10:21:12;;;;;;;6.00;1.13;;;;;;;21.89;82.35;101555.78;5029159;28;20045;-73
2023/09/29 10:23:49;;;;;;;6.28;1.13;;;;;;;22.02;82.44;101558.16;5030404;28;20041;-73
2023/09/29 10:26:20;;;;;;;5.10;1.20;;;;;;;22.05;81.62;101575.81;5029817;28;20047;-74
2023/09/29 10:28:46;;;;;;;4.80;1.00;;;;;;;21.83;82.65;101576.22;5029099;28;20092;-73
2023/09/29 10:31:14;;;;;;;6.32;1.20;;;;;;;21.49;83.16;101590.25;5029857;28;20037;-73
2023/09/29 10:33:58;;;;;;;5.18;1.20;;;;;;;21.49;83.46;101593.78;5029786;28;20037;-71
2023/09/29 10:36:28;;;;;;;4.55;0.93;;;;;;;21.60;83.46;101601.50;5029805;28;20060;-73
2023/09/29 10:38:57;;;;;;;7.03;1.30;;;;;;;21.49;83.38;101601.75;5029449;28;20029;-71
2023/09/29 10:41:31;;;;;;;4.10;1.10;;;;;;;21.81;81.96;101607.25;5030236;28;20034;-72
2023/09/29 10:43:59;;;;;;;4.97;1.20;;;;;;;21.62;82.06;101613.84;5028883;28;20422;-72
2023/09/29 10:46:29;;;;;;;3.05;0.90;;;;;;;21.44;82.53;101615.09;5029719;28;20034;-71
2023/09/29 10:49:00;;;;;;;4.15;1.30;;;;;;;21.68;81.96;101621.69;5029264;28;20074;-71
2023/09/29 10:51:45;;;;;;;5.13;1.10;;;;;;;21.34;82.07;101629.47;5029547;28;20068;-71
2023/09/29 10:54:11;;;;;;;4.03;1.00;;;;;;;21.39;82.32;101647.94;5029800;28;20040;-72
2023/09/29 10:56:47;;;;;;;3.95;1.10;;;;;;;21.24;82.55;101651.72;5029936;28;20037;-74
2023/09/29 10:59:17;;;;;;;3.35;1.00;;;;;;;20.92;83.09;101649.59;5029636;28;20029;-73
2023/09/29 11:01:46;;;;;;;4.65;1.10;;;;;;;21.25;82.53;101647.31;5029149;28;20041;-74
2023/09/29 11:04:23;;;;;;;5.75;1.13;;;;;;;21.73;81.66;101648.13;5028763;28;20087;-73
2023/09/29 11:06:52;;;;;;;5.45;1.20;;;;;;;21.57;80.23;101649.34;5028813;28;20041;-73
2023/09/29 11:09:28;;;;;;;2.97;1.10;;;;;;;21.97;79.38;101654.75;5029240;28;20042;-73
2023/09/29 11:11:56;;;;;;;5.63;1.20;;;;;;;21.69;79.10;101665.91;5028658;28;20045;-73
2023/09/29 11:14:37;;;;;;;4.05;1.02;;;;;;;22.04;78.61;101675.81;5029377;28;20116;-73
2023/09/29 11:17:02;;;;;;;4.00;1.00;;;;;;;21.87;78.65;101680.59;5029403;28;20081;-74
2023/09/29 11:19:37;;;;;;;4.75;1.10;;;;;;;22.21;77.25;101686.09;5029772;28;20065;-74
2023/09/29 11:22:17;;;;;;;4.82;0.90;;;;;;;22.15;75.92;101692.41;5029117;28;20522;-74
2023/09/29 11:24:50;;;;;;;6.10;1.20;;;;;;;22.59;74.01;101707.38;5029529;28;20097;-74
2023/09/29 11:27:19;;;;;;;4.68;0.90;;;;;;;22.27;75.58;101709.84;5030643;28;20083;-74
2023/09/29 11:29:48;;;;;;;4.75;1.00;;;;;;;21.65;76.00;101711.13;5035682;28;20052;-72